Time;durP1;ratioP1;P1;durP2;ratioP2;P2;SDS_P1;SDS_P2;PMS_P1;PMS_P2;Temp;Humidity;BMP_temperature;BMP_pressure;BME280_temperature;BME280_humidity;BME280_pressure;Samples;Min_cycle;Max_cycle;Signal;HPM_P1;HPM_P2
2023/04/01 00:00:53;;;;;;;22.60;9.93;;;;;;;;;;4979070;28;100429;-78
2023/04/01 00:03:20;;;;;;;37.55;10.35;;;;;;;;;;4985651;28;98532;-78
2023/04/01 00:05:47;;;;;;;28.55;10.68;;;;;;;;;;4981993;28;100613;-79
2023/04/01 00:08:14;;;;;;;22.00;9.73;;;;;;;;;;4968419;28;99800;-78
2023/04/01 00:10:40;;;;;;;26.58;9.68;;;;;;;;;;4997444;28;99704;-78
2023/04/01 00:13:07;;;;;;;32.55;9.23;;;;;;;;;;4989189;28;99412;-77
2023/04/01 00:15:34;;;;;;;39.83;11.93;;;;;;;;;;4979056;28;99865;-77
2023/04/01 00:18:00;;;;;;;27.83;11.00;;;;;;;;;;4989860;28;98591;-77
2023/04/01 00:20:27;;;;;;;27.50;11.43;;;;;;;;;;4979843;28;99240;-77
2023/04/01 00:22:53;;;;;;;32.38;11.15;;;;;;;;;;4988481;28;100411;-77
2023/04/01 00:25:20;;;;;;;35.25;12.52;;;;;;;;;;4975886;28;99957;-77
2023/04/01 00:27:47;;;;;;;33.95;11.25;;;;;;;;;;4972710;28;100672;-78
2023/04/01 00:30:14;;;;;;;30.90;10.93;;;;;;;;;;4988453;28;98612;-78
2023/04/01 00:32:40;;;;;;;36.83;12.05;;;;;;;;;;4985189;28;99631;-78
2023/04/01 00:35:07;;;;;;;39.53;12.80;;;;;;;;;;4973339;28;99515;-79
2023/04/01 00:37:37;;;;;;;41.67;13.50;;;;;;;;;;4970075;28;98600;-78
2023/04/01 00:40:05;;;;;;;48.20;14.73;;;;;;;;;;4987296;28;99907;-78
2023/04/01 00:42:31;;;;;;;40.72;14.60;;;;;;;;;;4975550;28;102306;-78
2023/04/01 00:44:58;;;;;;;41.08;15.80;;;;;;;;;;4986136;28;99690;-79
2023/04/01 00:47:26;;;;;;;57.70;16.95;;;;;;;;;;4985038;28;101042;-78
2023/04/01 00:49:54;;;;;;;35.38;14.10;;;;;;;;;;4986154;28;98595;-78
2023/04/01 00:52:22;;;;;;;41.10;15.18;;;;;;;;;;4982042;28;99984;-78
2023/04/01 00:54:50;;;;;;;36.65;14.93;;;;;;;;;;4986462;28;99872;-78
2023/04/01 00:57:21;;;;;;;41.85;14.75;;;;;;;;;;4987372;28;98549;-78
2023/04/01 00:59:52;;;;;;;45.83;15.68;;;;;;;;;;4985261;28;98578;-79
2023/04/01 01:02:19;;;;;;;43.85;16.90;;;;;;;;;;4986943;28;100775;-78
2023/04/01 01:04:45;;;;;;;40.88;16.42;;;;;;;;;;4983560;28;97899;-77
2023/04/01 01:07:18;;;;;;;49.20;17.10;;;;;;;;;;4984610;28;99622;-79
2023/04/01 01:09:56;;;;;;;44.78;16.02;;;;;;;;;;4986535;28;98545;-79
2023/04/01 01:12:30;;;;;;;46.03;16.83;;;;;;;;;;4969672;28;99220;-77
2023/04/01 01:15:07;;;;;;;44.72;15.90;;;;;;;;;;4992896;28;99457;-77
2023/04/01 01:17:33;;;;;;;45.50;16.00;;;;;;;;;;4985771;28;98526;-77
2023/04/01 01:20:03;;;;;;;49.13;15.50;;;;;;;;;;4983476;28;99889;-77
2023/04/01 01:22:54;;;;;;;43.00;16.65;;;;;;;;;;4997386;28;100470;-77
2023/04/01 01:25:39;;;;;;;43.63;15.45;;;;;;;;;;4978669;28;98575;-77
2023/04/01 01:28:20;;;;;;;43.38;15.50;;;;;;;;;;4984813;28;101395;-77
2023/04/01 01:30:50;;;;;;;38.63;13.02;;;;;;;;;;4979976;28;99898;-78
2023/04/01 01:33:16;;;;;;;39.35;12.90;;;;;;;;;;4978394;28;99968;-78
2023/04/01 01:35:46;;;;;;;30.45;13.35;;;;;;;;;;4971525;28;99523;-78
2023/04/01 01:38:17;;;;;;;32.50;12.50;;;;;;;;;;4988741;28;99238;-76
2023/04/01 01:40:45;;;;;;;30.75;12.65;;;;;;;;;;4972054;28;100162;-77
2023/04/01 01:43:13;;;;;;;33.60;12.35;;;;;;;;;;4987123;28;100303;-77
2023/04/01 01:45:43;;;;;;;36.20;11.63;;;;;;;;;;4985512;28;98651;-76
2023/04/01 01:48:10;;;;;;;37.70;10.23;;;;;;;;;;4987998;28;99161;-77
2023/04/01 01:50:37;;;;;;;19.17;9.60;;;;;;;;;;4981833;28;100706;-77
2023/04/01 01:53:05;;;;;;;15.48;7.95;;;;;;;;;;4990774;28;98499;-78
2023/04/01 01:55:33;;;;;;;15.32;7.13;;;;;;;;;;4978356;28;98768;-77
2023/04/01 01:58:05;;;;;;;19.63;7.85;;;;;;;;;;4992298;28;98606;-78
2023/04/01 02:00:32;;;;;;;17.63;7.93;;;;;;;;;;4992932;28;99188;-78
2023/04/01 02:03:00;;;;;;;19.88;8.60;;;;;;;;;;4977835;28;101242;-78
2023/04/01 02:05:28;;;;;;;21.05;8.27;;;;;;;;;;4988100;28;98580;-78
2023/04/01 02:08:01;;;;;;;19.85;8.18;;;;;;;;;;4979430;28;100565;-78
2023/04/01 02:10:28;;;;;;;20.13;7.85;;;;;;;;;;4987299;28;99914;-78
2023/04/01 02:12:57;;;;;;;16.13;7.47;;;;;;;;;;4991419;28;98585;-77
2023/04/01 02:15:25;;;;;;;18.60;7.18;;;;;;;;;;4992105;28;99648;-77
2023/04/01 02:17:51;;;;;;;17.63;7.60;;;;;;;;;;4992565;28;98551;-78
2023/04/01 02:20:20;;;;;;;21.92;7.60;;;;;;;;;;4992549;28;99333;-78
2023/04/01 02:22:49;;;;;;;17.15;8.27;;;;;;;;;;4986433;28;100575;-78
2023/04/01 02:25:17;;;;;;;19.20;8.10;;;;;;;;;;4985564;28;100137;-78
2023/04/01 02:27:45;;;;;;;19.60;8.65;;;;;;;;;;4991828;28;100398;-79
2023/04/01 02:30:12;;;;;;;18.38;7.32;;;;;;;;;;4988152;28;99909;-77
2023/04/01 02:32:39;;;;;;;19.08;8.38;;;;;;;;;;4984329;28;99019;-78
2023/04/01 02:35:10;;;;;;;17.98;8.05;;;;;;;;;;4990972;28;100731;-78
2023/04/01 02:37:37;;;;;;;17.65;7.68;;;;;;;;;;4977670;28;98940;-77
2023/04/01 02:40:07;;;;;;;19.45;8.57;;;;;;;;;;4982266;28;103423;-78
2023/04/01 02:42:34;;;;;;;16.17;7.50;;;;;;;;;;4987555;28;101001;-78
2023/04/01 02:45:00;;;;;;;13.50;6.72;;;;;;;;;;4990592;28;97802;-78
2023/04/01 02:47:27;;;;;;;16.58;7.22;;;;;;;;;;4983821;28;98641;-78
2023/04/01 02:49:57;;;;;;;18.60;7.47;;;;;;;;;;4998634;28;100356;-78
2023/04/01 02:52:24;;;;;;;16.17;6.68;;;;;;;;;;4984708;28;99582;-78
2023/04/01 02:54:50;;;;;;;12.02;6.75;;;;;;;;;;4976662;28;102178;-77
2023/04/01 02:57:17;;;;;;;15.13;7.05;;;;;;;;;;4986938;28;100604;-78
2023/04/01 02:59:43;;;;;;;15.45;7.35;;;;;;;;;;4973486;28;99625;-77
2023/04/01 03:02:10;;;;;;;12.68;6.63;;;;;;;;;;4976599;28;100824;-77
2023/04/01 03:04:36;;;;;;;17.23;7.05;;;;;;;;;;4978025;28;98628;-77
2023/04/01 03:07:03;;;;;;;13.25;6.80;;;;;;;;;;4972763;28;99457;-77
2023/04/01 03:09:29;;;;;;;13.45;6.95;;;;;;;;;;4988685;28;98794;-77
2023/04/01 03:11:56;;;;;;;13.07;5.80;;;;;;;;;;4979469;28;98516;-78
2023/04/01 03:14:23;;;;;;;9.38;6.22;;;;;;;;;;4991332;28;100216;-78
2023/04/01 03:16:49;;;;;;;14.60;6.68;;;;;;;;;;4990859;28;100342;-79
2023/04/01 03:19:15;;;;;;;11.27;5.82;;;;;;;;;;4980455;28;98997;-76
2023/04/01 03:21:42;;;;;;;11.02;5.32;;;;;;;;;;4984690;28;99339;-78
2023/04/01 03:24:08;;;;;;;10.52;5.47;;;;;;;;;;4973476;28;98577;-77
2023/04/01 03:26:35;;;;;;;10.48;5.60;;;;;;;;;;4994816;28;99176;-79
2023/04/01 03:29:01;;;;;;;8.40;4.50;;;;;;;;;;5013639;28;98729;-80
2023/04/01 03:31:27;;;;;;;9.30;4.72;;;;;;;;;;5014060;28;99933;-80
2023/04/01 03:33:54;;;;;;;9.02;4.82;;;;;;;;;;5012175;28;97865;-80
2023/04/01 03:36:21;;;;;;;8.63;4.70;;;;;;;;;;4997059;28;98254;-79
2023/04/01 03:38:47;;;;;;;10.80;5.30;;;;;;;;;;5004516;28;98518;-77
2023/04/01 03:41:15;;;;;;;14.77;5.50;;;;;;;;;;5018406;28;99200;-79
2023/04/01 03:43:41;;;;;;;8.15;5.13;;;;;;;;;;5000716;28;98156;-77
2023/04/01 03:46:08;;;;;;;10.55;5.55;;;;;;;;;;5010782;28;98243;-78
2023/04/01 03:48:34;;;;;;;8.57;5.15;;;;;;;;;;5013107;28;99588;-78
2023/04/01 03:51:01;;;;;;;11.05;5.60;;;;;;;;;;5008289;28;98765;-79
2023/04/01 03:53:27;;;;;;;11.70;5.60;;;;;;;;;;5006219;28;98670;-79
2023/04/01 03:55:54;;;;;;;8.48;5.30;;;;;;;;;;5014721;28;99725;-79
2023/04/01 03:58:20;;;;;;;9.30;5.32;;;;;;;;;;4999940;28;97757;-78
2023/04/01 04:00:47;;;;;;;11.77;5.88;;;;;;;;;;4982965;28;100090;-78
2023/04/01 04:03:13;;;;;;;13.18;6.18;;;;;;;;;;4987172;28;99516;-77
2023/04/01 04:05:46;;;;;;;12.10;5.93;;;;;;;;;;4985993;28;100410;-78
2023/04/01 04:08:12;;;;;;;9.73;5.60;;;;;;;;;;4979373;28;98557;-77
2023/04/01 04:10:39;;;;;;;8.48;5.70;;;;;;;;;;4977429;28;100652;-77
2023/04/01 04:13:06;;;;;;;9.15;5.97;;;;;;;;;;4985554;28;99224;-78
2023/04/01 04:15:32;;;;;;;12.85;5.88;;;;;;;;;;4985761;28;99522;-78
2023/04/01 04:17:59;;;;;;;9.20;5.65;;;;;;;;;;4988371;28;98997;-77
2023/04/01 04:20:25;;;;;;;6.97;5.22;;;;;;;;;;4971179;28;99477;-78
2023/04/01 04:22:52;;;;;;;13.20;6.30;;;;;;;;;;4987081;28;99882;-78
2023/04/01 04:25:18;;;;;;;10.65;6.05;;;;;;;;;;4988332;28;98782;-77
2023/04/01 04:27:45;;;;;;;7.43;5.30;;;;;;;;;;4973907;28;100618;-77
2023/04/01 04:30:14;;;;;;;7.95;5.38;;;;;;;;;;4988592;28;99295;-77
2023/04/01 04:32:41;;;;;;;10.32;5.53;;;;;;;;;;4984341;28;101497;-77
2023/04/01 04:35:08;;;;;;;10.45;5.82;;;;;;;;;;4989282;28;100796;-77
2023/04/01 04:37:34;;;;;;;7.85;5.82;;;;;;;;;;4989733;28;100224;-78
2023/04/01 04:40:01;;;;;;;9.05;5.95;;;;;;;;;;4988463;28;100113;-78
2023/04/01 04:42:28;;;;;;;8.23;5.97;;;;;;;;;;4974310;28;100556;-78
2023/04/01 04:44:54;;;;;;;10.63;6.47;;;;;;;;;;4991929;28;98553;-78
2023/04/01 04:47:20;;;;;;;11.20;6.75;;;;;;;;;;4981010;28;97813;-78
2023/04/01 04:49:47;;;;;;;14.50;7.80;;;;;;;;;;4974759;28;100086;-78
2023/04/01 04:52:13;;;;;;;14.57;8.27;;;;;;;;;;4977541;28;99345;-78
2023/04/01 04:54:40;;;;;;;13.48;7.97;;;;;;;;;;4975147;28;100347;-78
2023/04/01 04:57:06;;;;;;;12.70;7.20;;;;;;;;;;4983805;28;98596;-78
2023/04/01 04:59:33;;;;;;;12.93;7.05;;;;;;;;;;4974235;28;100220;-78
2023/04/01 05:01:59;;;;;;;13.23;6.43;;;;;;;;;;4982661;28;100331;-78
2023/04/01 05:04:25;;;;;;;11.55;6.13;;;;;;;;;;4973439;28;99539;-78
2023/04/01 05:06:52;;;;;;;10.50;6.40;;;;;;;;;;4972024;28;99518;-78
2023/04/01 05:09:18;;;;;;;13.35;5.18;;;;;;;;;;4971449;28;98444;-78
2023/04/01 05:11:45;;;;;;;10.27;5.13;;;;;;;;;;4982275;28;100520;-78
2023/04/01 05:14:12;;;;;;;9.18;4.60;;;;;;;;;;4988902;28;99961;-78
2023/04/01 05:16:38;;;;;;;7.68;4.13;;;;;;;;;;4987463;28;99361;-78
2023/04/01 05:19:05;;;;;;;8.90;4.78;;;;;;;;;;4976410;28;99653;-78
2023/04/01 05:21:31;;;;;;;7.97;4.70;;;;;;;;;;4978271;28;100622;-78
2023/04/01 05:23:58;;;;;;;7.05;4.55;;;;;;;;;;4998194;28;98600;-78
2023/04/01 05:26:24;;;;;;;13.23;5.45;;;;;;;;;;4973886;28;100247;-77
2023/04/01 05:28:51;;;;;;;11.10;5.70;;;;;;;;;;4985815;28;99856;-77
2023/04/01 05:31:17;;;;;;;9.23;5.32;;;;;;;;;;4986333;28;99273;-78
2023/04/01 05:33:43;;;;;;;11.43;5.88;;;;;;;;;;4988787;28;100876;-78
2023/04/01 05:36:11;;;;;;;11.93;6.15;;;;;;;;;;4987414;28;97832;-78
2023/04/01 05:38:37;;;;;;;8.57;5.95;;;;;;;;;;4988133;28;99566;-78
2023/04/01 05:41:04;;;;;;;9.80;5.93;;;;;;;;;;4989953;28;99502;-78
2023/04/01 05:43:30;;;;;;;7.78;5.72;;;;;;;;;;4992575;28;99372;-78
2023/04/01 05:45:57;;;;;;;9.80;6.38;;;;;;;;;;4988480;28;99637;-78
2023/04/01 05:48:23;;;;;;;8.32;5.25;;;;;;;;;;4990807;28;99536;-78
2023/04/01 05:50:49;;;;;;;8.90;5.50;;;;;;;;;;4980387;28;98596;-78
2023/04/01 05:53:16;;;;;;;9.25;5.43;;;;;;;;;;4989286;28;99950;-78
2023/04/01 05:55:42;;;;;;;13.60;6.25;;;;;;;;;;4991745;28;98743;-78
2023/04/01 05:58:09;;;;;;;9.93;5.18;;;;;;;;;;4992395;28;100537;-78
2023/04/01 06:00:35;;;;;;;10.05;5.63;;;;;;;;;;4984968;28;99095;-78
2023/04/01 06:03:01;;;;;;;8.18;4.57;;;;;;;;;;4974819;28;98664;-78
2023/04/01 06:05:29;;;;;;;7.50;4.72;;;;;;;;;;4988261;28;102368;-78
2023/04/01 06:08:02;;;;;;;9.02;4.90;;;;;;;;;;4986464;28;102591;-78
2023/04/01 06:10:37;;;;;;;7.07;4.60;;;;;;;;;;4984069;28;100127;-80
2023/04/01 06:13:12;;;;;;;7.63;4.60;;;;;;;;;;5008048;28;99754;-80
2023/04/01 06:15:50;;;;;;;7.43;5.07;;;;;;;;;;4987537;28;98577;-79
2023/04/01 06:18:35;;;;;;;7.60;4.53;;;;;;;;;;4993773;28;99715;-79
2023/04/01 06:21:02;;;;;;;8.05;4.90;;;;;;;;;;4985521;28;100530;-80
2023/04/01 06:23:35;;;;;;;8.48;4.90;;;;;;;;;;4987455;28;99816;-80
2023/04/01 06:26:05;;;;;;;8.15;4.63;;;;;;;;;;4984061;28;100314;-80
2023/04/01 06:28:56;;;;;;;7.38;4.78;;;;;;;;;;4978371;28;100405;-80
2023/04/01 06:31:25;;;;;;;6.32;4.25;;;;;;;;;;4984362;28;99125;-79
2023/04/01 06:33:52;;;;;;;7.15;4.70;;;;;;;;;;4992385;28;100148;-79
2023/04/01 06:36:40;;;;;;;6.97;4.30;;;;;;;;;;4990114;28;98618;-81
2023/04/01 06:39:09;;;;;;;8.57;4.63;;;;;;;;;;4984845;28;99209;-83
2023/04/01 06:41:55;;;;;;;13.40;5.35;;;;;;;;;;4984251;28;100169;-81
2023/04/01 06:44:34;;;;;;;6.47;4.32;;;;;;;;;;4973034;28;99175;-80
2023/04/01 06:47:16;;;;;;;9.25;3.83;;;;;;;;;;4982183;28;99151;-80
2023/04/01 06:50:00;;;;;;;6.15;3.70;;;;;;;;;;4993362;28;99460;-81
2023/04/01 06:52:34;;;;;;;8.93;3.80;;;;;;;;;;4980821;28;98126;-80
2023/04/01 06:55:17;;;;;;;4.68;3.50;;;;;;;;;;4985655;28;99172;-81
2023/04/01 06:57:48;;;;;;;4.35;3.08;;;;;;;;;;4988023;28;99512;-80
2023/04/01 07:00:19;;;;;;;4.18;3.45;;;;;;;;;;5005304;28;100330;-80
2023/04/01 07:02:53;;;;;;;3.78;2.90;;;;;;;;;;4993225;28;99606;-81
2023/04/01 07:05:20;;;;;;;3.60;2.90;;;;;;;;;;4992055;28;98469;-79
2023/04/01 07:07:48;;;;;;;3.53;2.65;;;;;;;;;;4991453;28;99736;-78
2023/04/01 07:10:20;;;;;;;5.75;3.22;;;;;;;;;;4983556;28;100726;-79
2023/04/01 07:12:49;;;;;;;3.38;2.53;;;;;;;;;;4985383;28;98624;-78
2023/04/01 07:15:15;;;;;;;4.50;2.35;;;;;;;;;;4987075;28;98950;-78
2023/04/01 07:17:43;;;;;;;3.35;2.53;;;;;;;;;;4985004;28;99852;-76
2023/04/01 07:20:12;;;;;;;3.30;2.50;;;;;;;;;;4993146;28;98557;-76
2023/04/01 07:22:43;;;;;;;4.20;3.13;;;;;;;;;;4983243;28;99851;-76
2023/04/01 07:25:21;;;;;;;3.95;3.30;;;;;;;;;;4986041;28;99449;-77
2023/04/01 07:27:47;;;;;;;7.25;3.35;;;;;;;;;;4991929;28;100407;-79
2023/04/01 07:30:16;;;;;;;6.70;3.90;;;;;;;;;;4985239;28;100813;-78
2023/04/01 07:32:47;;;;;;;4.70;3.40;;;;;;;;;;4989895;28;98552;-80
2023/04/01 07:35:43;;;;;;;4.95;4.13;;;;;;;;;;4987539;28;100338;-78
2023/04/01 07:38:28;;;;;;;5.43;4.32;;;;;;;;;;4969802;28;100750;-76
2023/04/01 07:41:17;;;;;;;6.25;4.78;;;;;;;;;;4971038;28;98935;-76
2023/04/01 07:44:02;;;;;;;6.30;4.43;;;;;;;;;;4974470;28;99468;-76
2023/04/01 07:46:40;;;;;;;7.25;4.70;;;;;;;;;;4987577;28;98603;-76
2023/04/01 07:49:14;;;;;;;6.82;4.85;;;;;;;;;;4990482;28;98756;-76
2023/04/01 07:51:40;;;;;;;8.10;5.13;;;;;;;;;;4989302;28;100435;-75
2023/04/01 07:54:11;;;;;;;9.57;5.93;;;;;;;;;;4984857;28;100365;-76
2023/04/01 07:56:46;;;;;;;8.50;5.55;;;;;;;;;;4976833;28;99218;-76
2023/04/01 07:59:32;;;;;;;9.13;5.78;;;;;;;;;;5001011;28;99531;-76
2023/04/01 08:02:07;;;;;;;9.02;5.43;;;;;;;;;;4990855;28;98532;-76
2023/04/01 08:04:42;;;;;;;8.57;5.53;;;;;;;;;;4988334;28;99218;-75
2023/04/01 08:07:20;;;;;;;10.02;5.72;;;;;;;;;;4992989;28;99632;-76
2023/04/01 08:09:55;;;;;;;10.85;5.78;;;;;;;;;;4990800;28;100699;-77
2023/04/01 08:12:40;;;;;;;10.43;6.75;;;;;;;;;;4990326;28;99415;-77
2023/04/01 08:15:06;;;;;;;11.55;7.18;;;;;;;;;;4989698;28;98579;-76
2023/04/01 08:17:32;;;;;;;13.20;7.47;;;;;;;;;;4984934;28;100613;-76
2023/04/01 08:20:09;;;;;;;12.82;7.22;;;;;;;;;;4981005;28;99486;-77
2023/04/01 08:22:38;;;;;;;13.10;7.00;;;;;;;;;;4980834;28;98551;-78
2023/04/01 08:25:07;;;;;;;12.13;6.75;;;;;;;;;;4985875;28;99093;-77
2023/04/01 08:27:36;;;;;;;10.48;6.45;;;;;;;;;;4970015;28;100767;-78
2023/04/01 08:30:16;;;;;;;12.13;6.70;;;;;;;;;;4974729;28;98492;-78
2023/04/01 08:32:44;;;;;;;14.02;7.13;;;;;;;;;;4989696;28;100863;-76
2023/04/01 08:35:27;;;;;;;11.52;6.28;;;;;;;;;;4990596;28;97877;-77
2023/04/01 08:37:59;;;;;;;14.63;7.03;;;;;;;;;;4990087;28;98746;-77
2023/04/01 08:40:26;;;;;;;13.48;7.25;;;;;;;;;;4986557;28;99403;-77
2023/04/01 08:43:05;;;;;;;14.50;6.97;;;;;;;;;;4974704;28;99414;-76
2023/04/01 08:45:44;;;;;;;12.25;6.18;;;;;;;;;;4970401;28;100338;-77
2023/04/01 08:48:12;;;;;;;;;;;;;;;;;;4988105;28;99634;-77
2023/04/01 08:51:02;;;;;;;12.60;7.20;;;;;;;;;;4988266;28;116730;-76
2023/04/01 08:53:49;;;;;;;15.52;7.18;;;;;;;;;;4980808;28;99434;-76
2023/04/01 08:56:35;;;;;;;12.32;7.43;;;;;;;;;;4989334;28;98505;-77
2023/04/01 08:59:39;;;;;;;12.80;7.32;;;;;;;;;;4987245;28;99482;-76
2023/04/01 09:02:15;;;;;;;12.55;7.50;;;;;;;;;;4955588;28;99498;-79
2023/04/01 09:05:01;;;;;;;12.55;7.20;;;;;;;;;;4953023;28;98689;-76
2023/04/01 09:07:28;;;;;;;11.90;6.93;;;;;;;;;;4967996;28;98952;-76
2023/04/01 09:10:09;;;;;;;15.40;8.93;;;;;;;;;;4959056;28;100239;-76
2023/04/01 09:12:54;;;;;;;9.20;6.15;;;;;;;;;;4947558;28;98621;-76
2023/04/01 09:15:37;;;;;;;8.60;5.38;;;;;;;;;;4955355;28;99195;-76
2023/04/01 09:18:12;;;;;;;8.15;5.63;;;;;;;;;;4957653;28;98727;-76
2023/04/01 09:20:52;;;;;;;8.00;5.03;;;;;;;;;;4961768;28;99212;-76
2023/04/01 09:23:24;;;;;;;4.90;4.17;;;;;;;;;;4947429;28;99613;-76
2023/04/01 09:26:02;;;;;;;6.25;3.78;;;;;;;;;;4931169;28;98604;-76
2023/04/01 09:28:34;;;;;;;6.97;3.95;;;;;;;;;;4949342;28;99333;-76
2023/04/01 09:31:19;;;;;;;5.60;4.40;;;;;;;;;;4955536;28;101940;-76
2023/04/01 09:34:02;;;;;;;5.75;4.30;;;;;;;;;;4965354;28;98718;-78
2023/04/01 09:36:43;;;;;;;6.70;4.80;;;;;;;;;;4969296;28;99203;-76
2023/04/01 09:39:17;;;;;;;8.77;4.78;;;;;;;;;;4972397;28;100182;-76
2023/04/01 09:41:56;;;;;;;6.18;4.10;;;;;;;;;;4969952;28;99524;-76
2023/04/01 09:44:34;;;;;;;6.75;4.38;;;;;;;;;;4986258;28;100207;-76
2023/04/01 09:47:14;;;;;;;5.10;3.20;;;;;;;;;;4985228;28;99293;-78
2023/04/01 09:50:00;;;;;;;3.75;3.33;;;;;;;;;;4969581;28;99690;-77
2023/04/01 09:52:33;;;;;;;4.80;3.75;;;;;;;;;;4973881;28;100480;-77
2023/04/01 09:55:06;;;;;;;4.22;3.35;;;;;;;;;;4989056;28;98077;-77
2023/04/01 09:57:53;;;;;;;5.78;3.70;;;;;;;;;;4987232;28;99346;-77
2023/04/01 10:00:37;;;;;;;6.90;5.50;;;;;;;;;;4986881;28;99919;-77
2023/04/01 10:03:13;;;;;;;9.23;5.47;;;;;;;;;;4987123;28;99646;-76
2023/04/01 10:05:45;;;;;;;7.60;5.65;;;;;;;;;;4975073;28;99361;-77
2023/04/01 10:08:24;;;;;;;12.38;7.70;;;;;;;;;;4983565;28;98671;-76
2023/04/01 10:11:09;;;;;;;8.85;5.90;;;;;;;;;;4991571;28;99215;-78
2023/04/01 10:13:36;;;;;;;10.63;6.80;;;;;;;;;;4992169;28;99610;-77
2023/04/01 10:16:02;;;;;;;11.05;7.63;;;;;;;;;;4990176;28;98582;-77
2023/04/01 10:18:36;;;;;;;12.45;7.68;;;;;;;;;;4991450;28;98833;-78
2023/04/01 10:21:08;;;;;;;10.13;7.38;;;;;;;;;;4990315;28;98684;-79
2023/04/01 10:23:38;;;;;;;9.30;7.13;;;;;;;;;;4989069;28;98864;-79
2023/04/01 10:26:04;;;;;;;9.80;6.80;;;;;;;;;;4976309;28;99072;-79
2023/04/01 10:28:43;;;;;;;11.65;7.30;;;;;;;;;;4974661;28;99454;-79
2023/04/01 10:31:27;;;;;;;12.48;6.88;;;;;;;;;;4989011;28;100945;-79
2023/04/01 10:34:00;;;;;;;9.70;6.32;;;;;;;;;;4991702;28;99473;-79
2023/04/01 10:36:35;;;;;;;11.25;6.30;;;;;;;;;;4983261;28;98503;-80
2023/04/01 10:39:27;;;;;;;10.70;6.70;;;;;;;;;;4972350;28;99287;-79
2023/04/01 10:41:53;;;;;;;8.85;6.15;;;;;;;;;;4971683;28;100206;-79
2023/04/01 10:44:38;;;;;;;9.38;5.93;;;;;;;;;;4974324;28;99006;-77
2023/04/01 10:47:13;;;;;;;8.70;5.97;;;;;;;;;;4993608;28;99384;-77
2023/04/01 10:49:40;;;;;;;10.50;6.00;;;;;;;;;;4992247;28;98537;-77
2023/04/01 10:52:09;;;;;;;13.05;6.55;;;;;;;;;;4992380;28;101180;-77
2023/04/01 10:54:46;;;;;;;15.00;6.07;;;;;;;;;;4986368;28;100184;-77
2023/04/01 10:57:15;;;;;;;7.75;5.57;;;;;;;;;;4991328;28;98528;-77
2023/04/01 11:00:04;;;;;;;5.68;5.07;;;;;;;;;;4991588;28;100345;-77
2023/04/01 11:02:46;;;;;;;9.35;5.50;;;;;;;;;;4991401;28;99745;-76
2023/04/01 11:05:21;;;;;;;8.10;6.00;;;;;;;;;;4988387;28;99740;-76
2023/04/01 11:08:08;;;;;;;10.07;6.15;;;;;;;;;;4989356;28;99694;-76
2023/04/01 11:10:53;;;;;;;10.50;6.72;;;;;;;;;;4994373;28;99482;-76
2023/04/01 11:13:28;;;;;;;10.93;6.47;;;;;;;;;;4990795;28;99532;-76
2023/04/01 11:16:13;;;;;;;12.63;5.50;;;;;;;;;;4985696;28;99497;-77
2023/04/01 11:18:39;;;;;;;5.75;4.25;;;;;;;;;;4984822;28;98525;-76
2023/04/01 11:21:09;;;;;;;5.38;4.00;;;;;;;;;;4990576;28;99285;-76
2023/04/01 11:23:41;;;;;;;4.63;3.75;;;;;;;;;;4989466;28;99470;-76
2023/04/01 11:26:10;;;;;;;3.00;2.33;;;;;;;;;;4989528;28;98852;-76
2023/04/01 11:28:49;;;;;;;5.53;2.30;;;;;;;;;;4991508;28;98860;-77
2023/04/01 11:31:35;;;;;;;2.22;1.85;;;;;;;;;;4990031;28;99530;-78
2023/04/01 11:34:02;;;;;;;1.77;1.50;;;;;;;;;;4985309;28;98463;-79
2023/04/01 11:36:49;;;;;;;2.60;1.58;;;;;;;;;;4989982;28;99357;-78
2023/04/01 11:39:34;;;;;;;3.95;2.58;;;;;;;;;;4987384;28;98740;-79
2023/04/01 11:42:13;;;;;;;5.85;3.03;;;;;;;;;;4986513;28;99446;-78
2023/04/01 11:44:42;;;;;;;4.47;2.78;;;;;;;;;;4982467;28;99416;-78
2023/04/01 11:47:28;;;;;;;2.30;2.15;;;;;;;;;;4987663;28;99306;-80
2023/04/01 11:50:14;;;;;;;3.30;2.10;;;;;;;;;;4983354;28;101283;-81
2023/04/01 11:52:59;;;;;;;2.88;2.67;;;;;;;;;;4974003;28;99543;-78
2023/04/01 11:55:36;;;;;;;3.70;2.33;;;;;;;;;;4980119;28;99322;-77
2023/04/01 11:58:06;;;;;;;2.45;2.05;;;;;;;;;;4977489;28;99177;-77
2023/04/01 12:00:49;;;;;;;2.42;2.10;;;;;;;;;;4969265;28;98891;-78
2023/04/01 12:03:31;;;;;;;2.83;1.52;;;;;;;;;;4973578;28;101737;-78
2023/04/01 12:06:16;;;;;;;2.17;1.73;;;;;;;;;;4970875;28;99031;-78
2023/04/01 12:08:42;;;;;;;2.22;1.20;;;;;;;;;;4970723;28;98525;-78
2023/04/01 12:11:09;;;;;;;1.75;1.20;;;;;;;;;;4970627;28;99161;-78
2023/04/01 12:13:45;;;;;;;1.50;1.40;;;;;;;;;;4976685;28;101224;-78
2023/04/01 12:16:23;;;;;;;2.38;1.92;;;;;;;;;;4976321;28;98544;-79
2023/04/01 12:18:54;;;;;;;3.30;2.00;;;;;;;;;;4987899;28;99424;-79
2023/04/01 12:21:23;;;;;;;3.30;2.90;;;;;;;;;;4990949;28;99530;-80
2023/04/01 12:24:08;;;;;;;3.13;2.85;;;;;;;;;;4977055;28;99270;-80
2023/04/01 12:26:44;;;;;;;3.70;3.17;;;;;;;;;;4981518;28;99267;-79
2023/04/01 12:29:40;;;;;;;5.00;4.00;;;;;;;;;;4989817;28;98609;-79
2023/04/01 12:32:15;;;;;;;4.95;4.13;;;;;;;;;;4952843;28;100323;-79
2023/04/01 12:34:42;;;;;;;5.32;4.50;;;;;;;;;;4967419;28;99303;-79
2023/04/01 12:37:28;;;;;;;4.75;4.30;;;;;;;;;;4967513;28;98840;-78
2023/04/01 12:40:07;;;;;;;7.32;5.25;;;;;;;;;;4928538;28;100406;-77
2023/04/01 12:42:34;;;;;;;6.63;5.70;;;;;;;;;;4948036;28;100508;-78
2023/04/01 12:45:27;;;;;;;9.35;7.10;;;;;;;;;;4963279;28;98851;-77
2023/04/01 12:48:04;;;;;;;8.55;7.00;;;;;;;;;;4963255;28;100130;-77
2023/04/01 12:51:00;;;;;;;9.20;7.30;;;;;;;;;;4948286;28;98972;-78
2023/04/01 12:53:41;;;;;;;9.57;7.35;;;;;;;;;;4902355;28;99152;-77
2023/04/01 12:56:28;;;;;;;13.20;8.30;;;;;;;;;;4906668;28;99508;-79
2023/04/01 12:59:01;;;;;;;13.60;8.32;;;;;;;;;;4908783;28;98290;-78
2023/04/01 13:01:36;;;;;;;12.55;8.77;;;;;;;;;;4907633;28;98629;-78
2023/04/01 13:04:12;;;;;;;11.80;8.77;;;;;;;;;;4897622;28;99934;-78
2023/04/01 13:06:54;;;;;;;15.40;9.55;;;;;;;;;;4894249;28;99456;-78
2023/04/01 13:09:26;;;;;;;17.10;9.65;;;;;;;;;;4923436;28;99835;-78
2023/04/01 13:12:11;;;;;;;17.10;10.20;;;;;;;;;;4919463;28;98625;-78
2023/04/01 13:14:48;;;;;;;18.88;11.02;;;;;;;;;;4947179;28;99758;-77
2023/04/01 13:17:24;;;;;;;17.15;9.75;;;;;;;;;;4923110;28;99523;-77
2023/04/01 13:19:57;;;;;;;18.52;9.57;;;;;;;;;;4926591;28;98654;-78
2023/04/01 13:22:31;;;;;;;;;;;;;;;;;;4932400;28;99226;-77
2023/04/01 13:25:16;;;;;;;17.95;9.23;;;;;;;;;;4928287;28;130043;-78
2023/04/01 13:27:47;;;;;;;14.43;8.77;;;;;;;;;;4923752;28;98615;-78
2023/04/01 13:30:13;;;;;;;;;;;;;;;;;;4956425;28;99213;-77
2023/04/01 13:32:45;;;;;;;20.73;8.80;;;;;;;;;;4984182;28;117921;-78
2023/04/01 13:35:22;;;;;;;13.90;8.30;;;;;;;;;;4985125;28;99843;-78
2023/04/01 13:37:54;;;;;;;12.70;7.88;;;;;;;;;;4968358;28;99460;-79
2023/04/01 13:40:26;;;;;;;11.20;7.75;;;;;;;;;;4979189;28;99775;-77
2023/04/01 13:43:04;;;;;;;12.73;8.20;;;;;;;;;;4969966;28;99157;-77
2023/04/01 13:45:49;;;;;;;8.10;6.80;;;;;;;;;;4978710;28;100691;-77
2023/04/01 13:48:15;;;;;;;5.97;5.30;;;;;;;;;;4991808;28;99192;-78
2023/04/01 13:50:42;;;;;;;8.68;6.03;;;;;;;;;;4991567;28;99112;-77
2023/04/01 13:53:12;;;;;;;8.52;5.97;;;;;;;;;;4978521;28;99762;-77
2023/04/01 13:55:49;;;;;;;5.33;4.23;;;;;;;;;;4972937;28;100355;-77
2023/04/01 13:58:16;;;;;;;8.30;5.22;;;;;;;;;;4973851;28;100336;-77
2023/04/01 14:00:42;;;;;;;7.32;4.63;;;;;;;;;;4991107;28;98721;-78
2023/04/01 14:03:14;;;;;;;5.25;3.95;;;;;;;;;;4993251;28;98954;-77
2023/04/01 14:05:42;;;;;;;4.70;3.97;;;;;;;;;;4992276;28;100833;-77
2023/04/01 14:08:28;;;;;;;4.90;4.00;;;;;;;;;;4986602;28;98778;-77
2023/04/01 14:10:54;;;;;;;3.35;3.10;;;;;;;;;;4997518;28;98976;-77
2023/04/01 14:13:41;;;;;;;4.03;3.20;;;;;;;;;;4992084;28;99334;-79
2023/04/01 14:16:20;;;;;;;3.55;3.10;;;;;;;;;;4994693;28;97885;-79
2023/04/01 14:19:00;;;;;;;5.72;3.95;;;;;;;;;;4988944;28;100698;-79
2023/04/01 14:21:32;;;;;;;8.45;5.05;;;;;;;;;;4989187;28;99808;-79
2023/04/01 14:23:59;;;;;;;8.82;5.38;;;;;;;;;;4992281;28;100718;-79
2023/04/01 14:26:46;;;;;;;5.68;4.97;;;;;;;;;;4989617;28;100557;-79
2023/04/01 14:29:19;;;;;;;6.85;5.22;;;;;;;;;;5003886;28;98618;-79
2023/04/01 14:31:49;;;;;;;8.25;5.60;;;;;;;;;;4988050;28;99378;-78
2023/04/01 14:34:21;;;;;;;5.72;5.18;;;;;;;;;;4988678;28;102590;-78
2023/04/01 14:36:54;;;;;;;8.07;5.50;;;;;;;;;;4990452;28;98606;-79
2023/04/01 14:39:26;;;;;;;5.68;5.18;;;;;;;;;;4995001;28;100204;-79
2023/04/01 14:42:08;;;;;;;5.93;5.32;;;;;;;;;;4992887;28;97782;-78
2023/04/01 14:45:06;;;;;;;7.07;4.78;;;;;;;;;;4991762;28;99625;-78
2023/04/01 14:47:43;;;;;;;5.43;4.90;;;;;;;;;;4976291;28;99982;-78
2023/04/01 14:50:14;;;;;;;5.00;4.50;;;;;;;;;;4985383;28;99374;-78
2023/04/01 14:52:55;;;;;;;4.45;4.05;;;;;;;;;;4990842;28;101048;-79
2023/04/01 14:55:31;;;;;;;5.03;4.53;;;;;;;;;;4987005;28;99633;-79
2023/04/01 14:58:18;;;;;;;5.32;4.68;;;;;;;;;;4991018;28;98469;-79
2023/04/01 15:00:53;;;;;;;5.22;4.65;;;;;;;;;;4990751;28;99927;-78
2023/04/01 15:03:29;;;;;;;4.57;4.18;;;;;;;;;;4993918;28;100800;-78
2023/04/01 15:06:12;;;;;;;5.50;4.53;;;;;;;;;;4992153;28;99590;-79